createdAt,value
2022-10-05T00:03:59.350Z,98583.00
2022-10-05T00:09:01.985Z,98525.03
2022-10-05T00:14:31.898Z,98556.16
2022-10-05T00:19:39.200Z,98481.72
2022-10-05T00:24:41.524Z,98558.78
2022-10-05T00:29:44.106Z,98489.50
2022-10-05T00:34:47.106Z,98563.09
2022-10-05T00:39:49.881Z,98558.75
2022-10-05T00:45:02.270Z,98569.16
2022-10-05T00:50:05.621Z,98607.25
2022-10-05T00:55:43.724Z,98570.00
2022-10-05T01:01:01.837Z,98590.81
2022-10-05T01:06:25.166Z,98615.94
2022-10-05T01:11:40.974Z,98617.69
2022-10-05T01:16:58.668Z,98596.03
2022-10-05T01:22:08.463Z,98594.34
2022-10-05T01:27:12.385Z,98611.63
2022-10-05T01:32:37.603Z,98541.47
2022-10-05T01:38:13.667Z,98613.31
2022-10-05T01:43:39.075Z,98622.94
2022-10-05T01:48:53.474Z,98619.41
2022-10-05T01:54:14.183Z,98608.19
2022-10-05T01:59:47.055Z,98615.09
2022-10-05T02:05:16.437Z,98620.34
2022-10-05T02:10:24.960Z,98628.13
2022-10-05T02:15:32.530Z,98546.72
2022-10-05T02:20:37.857Z,98531.16
2022-10-05T02:25:42.998Z,98612.56
2022-10-05T02:31:14.513Z,98631.59
2022-10-05T02:36:26.358Z,98539.81
2022-10-05T02:41:50.534Z,98637.69
2022-10-05T02:47:06.177Z,98554.56
2022-10-05T02:52:19.458Z,98614.28
2022-10-05T02:58:06.297Z,98598.72
2022-10-05T03:03:39.038Z,98625.56
2022-10-05T03:09:05.518Z,98542.44
2022-10-05T03:14:15.446Z,98618.66
2022-10-05T03:19:45.314Z,98636.81
2022-10-05T03:24:54.217Z,98651.59
2022-10-05T03:30:23.638Z,98576.19
2022-10-05T03:35:34.915Z,98576.22
2022-10-05T03:40:40.685Z,98649.84
2022-10-05T03:46:11.956Z,98513.88
2022-10-05T03:51:36.008Z,98596.16
2022-10-05T03:57:04.584Z,98654.22
2022-10-05T04:02:29.552Z,98657.69
2022-10-05T04:07:47.144Z,98634.25
2022-10-05T04:12:58.842Z,98662.03
2022-10-05T04:18:07.873Z,98638.63
2022-10-05T04:23:10.094Z,98657.69
2022-10-05T04:28:37.292Z,98637.75
2022-10-05T04:33:39.555Z,98554.59
2022-10-05T04:39:20.520Z,98639.47
2022-10-05T04:44:37.129Z,98671.53
2022-10-05T04:49:55.639Z,98673.31
2022-10-05T04:55:29.429Z,98687.16
2022-10-05T05:00:44.022Z,98686.31
2022-10-05T05:06:22.617Z,98694.09
2022-10-05T05:11:54.155Z,98691.50
2022-10-05T05:17:21.180Z,98689.78
2022-10-05T05:22:47.492Z,98690.63
2022-10-05T05:27:55.735Z,98671.59
2022-10-05T05:33:05.927Z,98687.19
2022-10-05T05:38:58.465Z,98658.56
2022-10-05T05:44:10.042Z,98703.66
2022-10-05T05:49:47.939Z,98619.59
2022-10-05T05:54:57.261Z,98690.66
2022-10-05T06:00:25.389Z,98676.78
2022-10-05T06:05:57.603Z,98590.09
2022-10-05T06:11:05.689Z,98672.44
2022-10-05T06:16:43.649Z,98714.91
2022-10-05T06:22:06.565Z,98681.09
2022-10-05T06:27:36.918Z,98716.66
2022-10-05T06:33:10.985Z,98734.88
2022-10-05T06:38:33.838Z,98741.81
2022-10-05T06:43:48.969Z,98718.41
2022-10-05T06:49:23.947Z,98751.34
2022-10-05T06:55:30.858Z,98710.59
2022-10-05T07:00:53.332Z,98767.84
2022-10-05T07:06:17.484Z,98697.59
2022-10-05T07:11:30.613Z,98773.91
2022-10-05T07:16:45.802Z,98774.78
2022-10-05T07:22:23.292Z,98783.44
2022-10-05T07:27:33.904Z,98748.75
2022-10-05T07:32:59.959Z,98801.69
2022-10-05T07:38:26.828Z,98681.09
2022-10-05T07:44:01.104Z,98733.16
2022-10-05T07:49:17.593Z,98803.41
2022-10-05T07:54:54.276Z,98732.28
2022-10-05T08:00:25.679Z,98794.69
2022-10-05T08:05:38.739Z,98782.56
2022-10-05T08:10:44.888Z,98742.69
2022-10-05T08:15:50.854Z,98804.25
2022-10-05T08:20:58.140Z,98779.97
2022-10-05T08:26:18.581Z,98842.44
2022-10-05T08:31:30.171Z,98744.41
2022-10-05T08:37:12.411Z,98842.41
2022-10-05T08:43:15.188Z,98806.84
2022-10-05T08:48:45.278Z,98844.13
2022-10-05T08:53:56.456Z,98855.41
2022-10-05T08:59:48.196Z,98851.97
2022-10-05T09:05:02.593Z,98864.16
2022-10-05T09:10:39.724Z,98873.72
2022-10-05T09:16:07.982Z,98876.28
2022-10-05T09:21:24.379Z,98850.25
2022-10-05T09:26:50.357Z,98886.72
2022-10-05T09:32:30.532Z,98891.94
2022-10-05T09:37:51.286Z,98894.56
2022-10-05T09:43:30.060Z,98901.47
2022-10-05T09:48:46.001Z,98899.72
2022-10-05T09:54:03.252Z,98903.22
2022-10-05T09:59:07.673Z,98904.09
2022-10-05T10:04:43.815Z,98909.28
2022-10-05T10:10:35.745Z,98914.50
2022-10-05T10:16:01.512Z,98913.59
2022-10-05T10:21:31.308Z,98898.84
2022-10-05T10:26:56.366Z,98906.63
2022-10-05T10:32:23.429Z,98930.03
2022-10-05T10:38:24.005Z,98827.59
2022-10-05T10:43:34.651Z,98929.06
2022-10-05T10:49:06.807Z,98938.63
2022-10-05T10:54:39.576Z,98916.03
2022-10-05T11:00:33.234Z,98938.69
2022-10-05T11:06:14.293Z,98956.97
2022-10-05T11:12:17.990Z,98956.94
2022-10-05T11:17:58.275Z,98969.13
2022-10-05T11:23:17.312Z,98950.91
2022-10-05T11:29:01.126Z,98965.72
2022-10-05T11:34:25.318Z,98988.28
2022-10-05T11:39:53.676Z,98996.13
2022-10-05T11:45:21.972Z,98998.75
2022-10-05T11:51:22.081Z,99014.41
2022-10-05T11:56:38.778Z,98968.38
2022-10-05T12:01:59.584Z,98983.97
2022-10-05T12:07:23.350Z,99008.28
2022-10-05T12:12:27.996Z,98942.25
2022-10-05T12:17:55.141Z,98991.78
2022-10-05T12:23:24.407Z,98996.16
2022-10-05T12:28:58.639Z,99034.41
2022-10-05T12:34:01.928Z,99039.63
2022-10-05T12:39:26.026Z,99030.91
2022-10-05T12:44:59.574Z,99032.66
2022-10-05T12:50:20.358Z,99015.28
2022-10-05T12:55:35.235Z,99013.56
2022-10-05T13:00:47.726Z,99017.03
2022-10-05T13:06:12.387Z,98909.28
2022-10-05T13:11:21.241Z,99053.50
2022-10-05T13:16:42.302Z,99044.81
2022-10-05T13:21:50.285Z,99057.00
2022-10-05T13:27:01.404Z,98906.72
2022-10-05T13:32:20.203Z,99070.06
2022-10-05T13:37:39.475Z,99066.59
2022-10-05T13:42:58.167Z,98991.81
2022-10-05T13:48:06.242Z,99077.03
2022-10-05T13:53:30.290Z,99088.31
2022-10-05T13:58:59.757Z,99065.69
2022-10-05T14:04:21.580Z,99105.72
2022-10-05T14:09:29.968Z,98996.97
2022-10-05T14:14:34.053Z,99077.81
2022-10-05T14:19:46.180Z,99083.00
2022-10-05T14:25:10.169Z,99124.75
2022-10-05T14:30:12.557Z,99120.38
2022-10-05T14:35:51.017Z,99131.69
2022-10-05T14:41:20.049Z,99082.03
2022-10-05T14:46:52.958Z,99104.63
2022-10-05T14:52:32.781Z,99140.31
2022-10-05T14:57:43.747Z,99150.66
2022-10-05T15:03:09.886Z,99158.50
2022-10-05T15:08:11.972Z,99160.22
2022-10-05T15:13:30.907Z,99110.59
2022-10-05T15:18:36.531Z,99165.38
2022-10-05T15:23:47.514Z,99147.06
2022-10-05T15:28:56.085Z,99179.25
2022-10-05T15:34:16.967Z,99167.00
2022-10-05T15:39:43.457Z,99179.22
2022-10-05T15:44:50.305Z,99193.09
2022-10-05T15:50:03.569Z,99169.50
2022-10-05T15:55:47.838Z,99210.47
2022-10-05T16:01:08.255Z,99078.91
2022-10-05T16:06:42.096Z,99210.31
2022-10-05T16:12:04.409Z,99193.81
2022-10-05T16:17:48.167Z,99219.06
2022-10-05T16:23:22.130Z,99184.22
2022-10-05T16:29:12.024Z,99206.00
2022-10-05T16:34:36.933Z,99198.94
2022-10-05T16:40:36.783Z,99219.00
2022-10-05T16:46:00.235Z,99222.47
2022-10-05T16:51:11.312Z,99228.47
2022-10-05T16:56:19.605Z,99214.53
2022-10-05T17:02:02.319Z,99133.53
2022-10-05T17:07:19.810Z,99252.75
2022-10-05T17:12:32.935Z,99150.81
2022-10-05T17:18:07.290Z,99247.53
2022-10-05T17:23:24.084Z,99253.53
2022-10-05T17:29:00.488Z,99221.28
2022-10-05T17:34:18.222Z,99255.13
2022-10-05T17:39:22.829Z,99259.41
2022-10-05T17:44:26.404Z,99232.31
2022-10-05T17:50:22.688Z,99268.78
2022-10-05T17:55:34.313Z,99260.09
2022-10-05T18:00:42.218Z,99220.72
2022-10-05T18:05:46.616Z,99259.81
2022-10-05T18:11:35.580Z,99266.88
2022-10-05T18:16:58.066Z,99271.09
2022-10-05T18:22:19.428Z,99279.56
2022-10-05T18:27:58.647Z,99280.47
2022-10-05T18:33:18.710Z,99281.16
2022-10-05T18:38:32.191Z,99281.94
2022-10-05T18:43:44.047Z,99285.41
2022-10-05T18:49:31.430Z,99285.41
2022-10-05T18:54:47.304Z,99286.31
2022-10-05T19:00:13.610Z,99250.59
2022-10-05T19:05:47.544Z,99278.56
2022-10-05T19:10:55.572Z,99288.06
2022-10-05T19:16:03.297Z,99281.16
2022-10-05T19:21:25.797Z,99292.50
2022-10-05T19:26:48.747Z,99293.34
2022-10-05T19:31:55.744Z,99283.69
2022-10-05T19:37:03.404Z,99243.47
2022-10-05T19:42:20.230Z,99273.19
2022-10-05T19:47:48.485Z,99303.69
2022-10-05T19:52:52.422Z,99289.78
2022-10-05T19:57:56.768Z,99284.63
2022-10-05T20:03:19.791Z,99259.41
2022-10-05T20:08:47.573Z,99291.66
2022-10-05T20:13:52.797Z,99295.16
2022-10-05T20:19:13.382Z,99285.50
2022-10-05T20:24:17.069Z,99299.44
2022-10-05T20:29:19.285Z,99235.72
2022-10-05T20:34:41.849Z,99305.53
2022-10-05T20:39:44.120Z,99269.69
2022-10-05T20:45:06.511Z,99269.75
2022-10-05T20:50:10.508Z,99255.78
2022-10-05T20:55:31.676Z,99260.94
2022-10-05T21:01:10.933Z,99271.44
2022-10-05T21:06:13.146Z,99281.94
2022-10-05T21:11:33.776Z,99249.75
2022-10-05T21:16:38.792Z,99275.78
2022-10-05T21:21:45.831Z,99321.25
2022-10-05T21:26:48.002Z,99217.38
2022-10-05T21:31:50.222Z,99228.72
2022-10-05T21:37:11.207Z,99248.91
2022-10-05T21:42:13.514Z,99296.84
2022-10-05T21:47:17.462Z,99278.50
2022-10-05T21:52:20.078Z,99277.66
2022-10-05T21:57:22.249Z,99243.72
2022-10-05T22:02:24.442Z,99243.66
2022-10-05T22:07:26.847Z,99288.09
2022-10-05T22:12:29.183Z,99245.41
2022-10-05T22:17:49.777Z,99305.53
2022-10-05T22:22:54.056Z,99343.03
2022-10-05T22:27:56.227Z,99336.09
2022-10-05T22:32:58.429Z,99337.00
2022-10-05T22:38:19.236Z,99325.72
2022-10-05T22:43:21.403Z,99332.69
2022-10-05T22:48:23.613Z,99284.72
2022-10-05T22:53:25.824Z,99268.16
2022-10-05T22:58:28.143Z,99343.19
2022-10-05T23:03:31.336Z,99270.81
2022-10-05T23:08:35.395Z,99288.31
2022-10-05T23:13:38.181Z,99292.69
2022-10-05T23:18:41.148Z,99339.00
2022-10-05T23:23:52.480Z,99280.56
2022-10-05T23:28:54.820Z,99299.75
2022-10-05T23:33:57.014Z,99294.47
2022-10-05T23:39:00.182Z,99331.09
2022-10-05T23:44:21.463Z,99308.44
2022-10-05T23:49:24.185Z,99329.41
2022-10-05T23:54:26.370Z,99329.41
2022-10-05T23:59:28.504Z,99305.84
